FAOR/JNB METAR and TAF weather

Enter ICAO airport designator
Station Type Date Time Source
FAOR METAR 2020/11/28 20:00 UTC NOAA

FAOR 282000Z 17003KT CAVOK 16/15 Q1023 NOSIG


Station Type Date Time Source
FAOR Decoded METAR 2020/11/28 20:00 UTC NOAA

Station name not available
Nov 28, 2020 - 03:00 PM EST / 2020.11.28 2000 UTC
Wind: from the S (170 degrees) at 3 MPH (3 KT):0
Visibility: greater than 7 mile(s):0
Temperature: 60 F (16 C)
Dew Point: 59 F (15 C)
Relative Humidity: 93%
Pressure (altimeter): 30.21 in. Hg (1023 hPa)
ob: FAOR 282000Z 17003KT CAVOK 16/15 Q1023 NOSIG
cycle: 20

Station Type Date Time Source
FAOR TAF 2020/11/28 18:00 UTC NOAA

TAF FAOR 281600Z 2818/2924 32010KT 9999 BKN035 TX24/2913Z TN16/2903Z PROB30
TEMPO 2818/2824 -TSRA FEW035CB
BECMG 2822/2824 VRB03KT PROB30
TEMPO 2903/2906 BKN010
BECMG 2904/2906 32010KT PROB30
TEMPO 2910/2914 -SHRA BKN015 FEW030TCU PROB40
TEMPO 2914/2924 5000 TSRA FEW030CB
BECMG 2918/2920 10012KT

Example: see airport list